sensor_id;sensor_type;location;lat;lon;timestamp;P1;durP1;ratioP1;P2;durP2;ratioP2
313;SDS011;143;51.634;7.112;2023-03-01T00:00:14;12.63;;;7.27;;
313;SDS011;143;51.634;7.112;2023-03-01T00:02:40;9.80;;;6.27;;
313;SDS011;143;51.634;7.112;2023-03-01T00:05:06;8.23;;;6.00;;
313;SDS011;143;51.634;7.112;2023-03-01T00:07:32;10.23;;;6.32;;
313;SDS011;143;51.634;7.112;2023-03-01T00:09:58;10.00;;;6.60;;
313;SDS011;143;51.634;7.112;2023-03-01T00:12:24;13.47;;;6.73;;
313;SDS011;143;51.634;7.112;2023-03-01T00:14:49;8.60;;;6.90;;
313;SDS011;143;51.634;7.112;2023-03-01T00:17:15;11.40;;;6.50;;
313;SDS011;143;51.634;7.112;2023-03-01T00:19:41;12.90;;;6.40;;
313;SDS011;143;51.634;7.112;2023-03-01T00:22:06;10.80;;;7.00;;
313;SDS011;143;51.634;7.112;2023-03-01T00:24:32;10.27;;;6.67;;
313;SDS011;143;51.634;7.112;2023-03-01T00:26:58;10.30;;;6.77;;
313;SDS011;143;51.634;7.112;2023-03-01T00:29:24;14.70;;;6.53;;
313;SDS011;143;51.634;7.112;2023-03-01T00:31:50;8.55;;;5.90;;
313;SDS011;143;51.634;7.112;2023-03-01T00:34:16;9.00;;;6.43;;
313;SDS011;143;51.634;7.112;2023-03-01T00:36:42;11.47;;;6.73;;
313;SDS011;143;51.634;7.112;2023-03-01T00:39:10;12.97;;;6.80;;
313;SDS011;143;51.634;7.112;2023-03-01T00:41:38;13.70;;;7.07;;
313;SDS011;143;51.634;7.112;2023-03-01T00:44:05;10.60;;;6.57;;
313;SDS011;143;51.634;7.112;2023-03-01T00:46:30;9.00;;;6.47;;
313;SDS011;143;51.634;7.112;2023-03-01T00:48:57;10.85;;;6.80;;
313;SDS011;143;51.634;7.112;2023-03-01T00:51:24;11.77;;;6.87;;
313;SDS011;143;51.634;7.112;2023-03-01T00:53:52;10.25;;;6.55;;
313;SDS011;143;51.634;7.112;2023-03-01T00:56:19;13.70;;;7.35;;
313;SDS011;143;51.634;7.112;2023-03-01T00:58:45;10.88;;;6.35;;
313;SDS011;143;51.634;7.112;2023-03-01T01:01:12;10.93;;;7.13;;
313;SDS011;143;51.634;7.112;2023-03-01T01:06:20;13.48;;;8.68;;
313;SDS011;143;51.634;7.112;2023-03-01T01:08:50;11.00;;;6.50;;
313;SDS011;143;51.634;7.112;2023-03-01T01:11:17;11.27;;;6.55;;
313;SDS011;143;51.634;7.112;2023-03-01T01:13:44;9.70;;;6.45;;
313;SDS011;143;51.634;7.112;2023-03-01T01:16:11;14.73;;;6.80;;
313;SDS011;143;51.634;7.112;2023-03-01T01:18:37;9.35;;;7.50;;
313;SDS011;143;51.634;7.112;2023-03-01T01:21:04;14.52;;;6.80;;
313;SDS011;143;51.634;7.112;2023-03-01T01:23:31;12.38;;;6.60;;
313;SDS011;143;51.634;7.112;2023-03-01T01:26:02;9.60;;;6.50;;
313;SDS011;143;51.634;7.112;2023-03-01T01:28:36;10.85;;;7.25;;
313;SDS011;143;51.634;7.112;2023-03-01T01:31:02;12.73;;;7.40;;
313;SDS011;143;51.634;7.112;2023-03-01T01:33:28;15.48;;;6.90;;
313;SDS011;143;51.634;7.112;2023-03-01T01:35:53;10.93;;;6.87;;
313;SDS011;143;51.634;7.112;2023-03-01T01:38:19;10.23;;;6.77;;
313;SDS011;143;51.634;7.112;2023-03-01T01:40:46;12.38;;;7.85;;
313;SDS011;143;51.634;7.112;2023-03-01T01:43:16;12.98;;;7.65;;
313;SDS011;143;51.634;7.112;2023-03-01T01:45:52;11.63;;;7.40;;
313;SDS011;143;51.634;7.112;2023-03-01T01:48:22;10.30;;;6.57;;
313;SDS011;143;51.634;7.112;2023-03-01T01:51:05;19.35;;;7.95;;
313;SDS011;143;51.634;7.112;2023-03-01T01:53:37;9.38;;;6.63;;
313;SDS011;143;51.634;7.112;2023-03-01T01:56:05;12.40;;;7.60;;
313;SDS011;143;51.634;7.112;2023-03-01T01:58:32;12.05;;;7.80;;
313;SDS011;143;51.634;7.112;2023-03-01T02:00:58;11.90;;;8.50;;
313;SDS011;143;51.634;7.112;2023-03-01T02:03:26;13.63;;;6.47;;
313;SDS011;143;51.634;7.112;2023-03-01T02:06:04;13.52;;;7.15;;
313;SDS011;143;51.634;7.112;2023-03-01T02:08:33;15.20;;;7.13;;
313;SDS011;143;51.634;7.112;2023-03-01T02:11:02;15.20;;;8.38;;
313;SDS011;143;51.634;7.112;2023-03-01T02:13:31;11.38;;;7.47;;
313;SDS011;143;51.634;7.112;2023-03-01T02:18:32;13.90;;;7.60;;
313;SDS011;143;51.634;7.112;2023-03-01T02:23:29;13.50;;;8.18;;
313;SDS011;143;51.634;7.112;2023-03-01T02:28:28;12.60;;;7.68;;
313;SDS011;143;51.634;7.112;2023-03-01T02:31:03;12.13;;;7.53;;
313;SDS011;143;51.634;7.112;2023-03-01T02:33:49;17.42;;;8.50;;
313;SDS011;143;51.634;7.112;2023-03-01T02:36:21;11.38;;;7.05;;
313;SDS011;143;51.634;7.112;2023-03-01T02:38:50;11.20;;;7.53;;
313;SDS011;143;51.634;7.112;2023-03-01T02:41:19;12.25;;;7.30;;
313;SDS011;143;51.634;7.112;2023-03-01T02:43:46;13.77;;;7.78;;
313;SDS011;143;51.634;7.112;2023-03-01T02:46:16;11.20;;;7.47;;
313;SDS011;143;51.634;7.112;2023-03-01T02:48:50;10.95;;;7.50;;
313;SDS011;143;51.634;7.112;2023-03-01T02:51:23;16.00;;;7.88;;
313;SDS011;143;51.634;7.112;2023-03-01T02:54:15;10.80;;;7.45;;
313;SDS011;143;51.634;7.112;2023-03-01T02:56:43;11.15;;;8.23;;
313;SDS011;143;51.634;7.112;2023-03-01T02:59:13;11.52;;;8.43;;
313;SDS011;143;51.634;7.112;2023-03-01T03:01:39;13.37;;;9.10;;
313;SDS011;143;51.634;7.112;2023-03-01T03:04:09;15.13;;;8.20;;
313;SDS011;143;51.634;7.112;2023-03-01T03:06:36;11.75;;;7.15;;
313;SDS011;143;51.634;7.112;2023-03-01T03:09:03;15.95;;;8.73;;
313;SDS011;143;51.634;7.112;2023-03-01T03:11:29;16.63;;;8.55;;
313;SDS011;143;51.634;7.112;2023-03-01T03:13:55;14.87;;;8.50;;
313;SDS011;143;51.634;7.112;2023-03-01T03:16:22;12.13;;;7.85;;
313;SDS011;143;51.634;7.112;2023-03-01T03:18:49;13.98;;;7.63;;
313;SDS011;143;51.634;7.112;2023-03-01T03:21:15;12.37;;;7.50;;
313;SDS011;143;51.634;7.112;2023-03-01T03:23:42;14.52;;;7.70;;
313;SDS011;143;51.634;7.112;2023-03-01T03:26:08;12.75;;;8.23;;
313;SDS011;143;51.634;7.112;2023-03-01T03:28:34;10.73;;;8.13;;
313;SDS011;143;51.634;7.112;2023-03-01T03:31:00;16.70;;;8.35;;
313;SDS011;143;51.634;7.112;2023-03-01T03:33:31;12.63;;;8.07;;
313;SDS011;143;51.634;7.112;2023-03-01T03:35:57;11.65;;;7.22;;
313;SDS011;143;51.634;7.112;2023-03-01T03:38:23;13.63;;;8.20;;
313;SDS011;143;51.634;7.112;2023-03-01T03:40:50;14.07;;;8.17;;
313;SDS011;143;51.634;7.112;2023-03-01T03:43:28;14.90;;;9.00;;
313;SDS011;143;51.634;7.112;2023-03-01T03:45:54;11.05;;;6.95;;
313;SDS011;143;51.634;7.112;2023-03-01T03:48:22;14.32;;;8.23;;
313;SDS011;143;51.634;7.112;2023-03-01T03:50:49;9.70;;;7.15;;
313;SDS011;143;51.634;7.112;2023-03-01T03:53:16;11.68;;;8.45;;
313;SDS011;143;51.634;7.112;2023-03-01T03:55:42;15.05;;;8.50;;
313;SDS011;143;51.634;7.112;2023-03-01T03:58:09;14.43;;;8.63;;
313;SDS011;143;51.634;7.112;2023-03-01T04:00:36;23.00;;;9.95;;
313;SDS011;143;51.634;7.112;2023-03-01T04:03:04;19.40;;;8.98;;
313;SDS011;143;51.634;7.112;2023-03-01T04:05:30;15.48;;;9.15;;
313;SDS011;143;51.634;7.112;2023-03-01T04:07:56;17.27;;;9.37;;
313;SDS011;143;51.634;7.112;2023-03-01T04:10:29;14.50;;;9.23;;
313;SDS011;143;51.634;7.112;2023-03-01T04:12:55;14.35;;;9.35;;
313;SDS011;143;51.634;7.112;2023-03-01T04:15:22;15.60;;;10.18;;
313;SDS011;143;51.634;7.112;2023-03-01T04:17:49;15.50;;;10.20;;
313;SDS011;143;51.634;7.112;2023-03-01T04:20:20;14.13;;;8.82;;
313;SDS011;143;51.634;7.112;2023-03-01T04:22:56;15.57;;;9.32;;
313;SDS011;143;51.634;7.112;2023-03-01T04:25:51;13.90;;;8.95;;
313;SDS011;143;51.634;7.112;2023-03-01T04:28:19;12.52;;;8.73;;
313;SDS011;143;51.634;7.112;2023-03-01T04:30:46;13.82;;;8.75;;
313;SDS011;143;51.634;7.112;2023-03-01T04:33:11;13.07;;;8.77;;
313;SDS011;143;51.634;7.112;2023-03-01T04:35:37;13.80;;;8.53;;
313;SDS011;143;51.634;7.112;2023-03-01T04:38:04;14.77;;;8.88;;
313;SDS011;143;51.634;7.112;2023-03-01T04:40:31;13.82;;;9.95;;
313;SDS011;143;51.634;7.112;2023-03-01T04:42:56;11.13;;;7.75;;
313;SDS011;143;51.634;7.112;2023-03-01T04:45:22;13.73;;;9.67;;
313;SDS011;143;51.634;7.112;2023-03-01T04:47:48;11.70;;;7.90;;
313;SDS011;143;51.634;7.112;2023-03-01T04:50:17;18.63;;;9.63;;
313;SDS011;143;51.634;7.112;2023-03-01T04:52:48;17.02;;;9.00;;
313;SDS011;143;51.634;7.112;2023-03-01T04:55:14;15.75;;;9.82;;
313;SDS011;143;51.634;7.112;2023-03-01T04:57:40;13.15;;;8.10;;
313;SDS011;143;51.634;7.112;2023-03-01T05:00:07;11.23;;;7.97;;
313;SDS011;143;51.634;7.112;2023-03-01T05:02:54;13.40;;;8.50;;
313;SDS011;143;51.634;7.112;2023-03-01T05:05:26;15.73;;;8.70;;
313;SDS011;143;51.634;7.112;2023-03-01T05:07:54;20.08;;;10.13;;
313;SDS011;143;51.634;7.112;2023-03-01T05:10:22;15.95;;;9.18;;
313;SDS011;143;51.634;7.112;2023-03-01T05:12:49;17.52;;;10.48;;
313;SDS011;143;51.634;7.112;2023-03-01T05:15:14;14.27;;;8.83;;
313;SDS011;143;51.634;7.112;2023-03-01T05:17:40;13.47;;;8.80;;
313;SDS011;143;51.634;7.112;2023-03-01T05:20:07;13.65;;;8.73;;
313;SDS011;143;51.634;7.112;2023-03-01T05:22:34;14.75;;;9.65;;
313;SDS011;143;51.634;7.112;2023-03-01T05:25:00;12.75;;;8.95;;
313;SDS011;143;51.634;7.112;2023-03-01T05:27:26;14.20;;;8.68;;
313;SDS011;143;51.634;7.112;2023-03-01T05:29:52;12.40;;;9.70;;
313;SDS011;143;51.634;7.112;2023-03-01T05:32:17;14.80;;;9.60;;
313;SDS011;143;51.634;7.112;2023-03-01T05:34:43;11.87;;;8.50;;
313;SDS011;143;51.634;7.112;2023-03-01T05:37:11;15.35;;;9.27;;
313;SDS011;143;51.634;7.112;2023-03-01T05:39:37;13.68;;;9.18;;
313;SDS011;143;51.634;7.112;2023-03-01T05:42:03;14.10;;;9.10;;
313;SDS011;143;51.634;7.112;2023-03-01T05:44:28;23.30;;;10.10;;
313;SDS011;143;51.634;7.112;2023-03-01T05:46:54;16.70;;;9.50;;
313;SDS011;143;51.634;7.112;2023-03-01T05:49:20;13.35;;;9.55;;
313;SDS011;143;51.634;7.112;2023-03-01T05:51:49;13.10;;;9.95;;
313;SDS011;143;51.634;7.112;2023-03-01T05:54:16;14.88;;;9.82;;
313;SDS011;143;51.634;7.112;2023-03-01T05:56:42;17.15;;;10.80;;
313;SDS011;143;51.634;7.112;2023-03-01T05:59:08;19.08;;;10.00;;
313;SDS011;143;51.634;7.112;2023-03-01T06:01:34;15.10;;;10.67;;
313;SDS011;143;51.634;7.112;2023-03-01T06:04:00;14.40;;;10.00;;
313;SDS011;143;51.634;7.112;2023-03-01T06:06:26;26.00;;;9.77;;
313;SDS011;143;51.634;7.112;2023-03-01T06:08:52;13.67;;;9.30;;
313;SDS011;143;51.634;7.112;2023-03-01T06:11:19;14.48;;;9.68;;
313;SDS011;143;51.634;7.112;2023-03-01T06:13:46;16.88;;;10.15;;
313;SDS011;143;51.634;7.112;2023-03-01T06:16:12;14.50;;;9.93;;
313;SDS011;143;51.634;7.112;2023-03-01T06:18:38;16.83;;;10.10;;
313;SDS011;143;51.634;7.112;2023-03-01T06:21:05;12.80;;;9.10;;
313;SDS011;143;51.634;7.112;2023-03-01T06:23:31;17.35;;;10.52;;
313;SDS011;143;51.634;7.112;2023-03-01T06:25:57;12.95;;;9.07;;
313;SDS011;143;51.634;7.112;2023-03-01T06:28:23;17.10;;;9.55;;
313;SDS011;143;51.634;7.112;2023-03-01T06:30:49;15.53;;;9.70;;
313;SDS011;143;51.634;7.112;2023-03-01T06:33:16;13.73;;;8.65;;
313;SDS011;143;51.634;7.112;2023-03-01T06:35:45;17.63;;;9.65;;
313;SDS011;143;51.634;7.112;2023-03-01T06:38:11;14.50;;;8.90;;
313;SDS011;143;51.634;7.112;2023-03-01T06:40:40;13.52;;;9.50;;
313;SDS011;143;51.634;7.112;2023-03-01T06:43:06;14.55;;;9.63;;
313;SDS011;143;51.634;7.112;2023-03-01T06:45:32;18.25;;;10.75;;
313;SDS011;143;51.634;7.112;2023-03-01T06:48:01;14.90;;;10.20;;
313;SDS011;143;51.634;7.112;2023-03-01T06:50:32;14.82;;;9.77;;
313;SDS011;143;51.634;7.112;2023-03-01T06:52:58;16.83;;;10.68;;
313;SDS011;143;51.634;7.112;2023-03-01T06:55:24;13.80;;;10.00;;
313;SDS011;143;51.634;7.112;2023-03-01T06:57:59;17.10;;;9.73;;
313;SDS011;143;51.634;7.112;2023-03-01T07:00:27;13.55;;;9.10;;
313;SDS011;143;51.634;7.112;2023-03-01T07:02:53;21.30;;;10.52;;
313;SDS011;143;51.634;7.112;2023-03-01T07:05:19;16.37;;;9.27;;
313;SDS011;143;51.634;7.112;2023-03-01T07:07:45;14.10;;;9.50;;
313;SDS011;143;51.634;7.112;2023-03-01T07:10:11;18.43;;;10.20;;
313;SDS011;143;51.634;7.112;2023-03-01T07:12:37;21.90;;;10.73;;
313;SDS011;143;51.634;7.112;2023-03-01T07:15:03;14.47;;;9.50;;
313;SDS011;143;51.634;7.112;2023-03-01T07:17:29;14.20;;;10.23;;
313;SDS011;143;51.634;7.112;2023-03-01T07:19:55;17.20;;;11.23;;
313;SDS011;143;51.634;7.112;2023-03-01T07:22:21;16.15;;;10.30;;
313;SDS011;143;51.634;7.112;2023-03-01T07:24:47;14.20;;;9.60;;
313;SDS011;143;51.634;7.112;2023-03-01T07:27:13;14.30;;;9.17;;
313;SDS011;143;51.634;7.112;2023-03-01T07:29:38;15.93;;;10.30;;
313;SDS011;143;51.634;7.112;2023-03-01T07:32:05;17.33;;;10.77;;
313;SDS011;143;51.634;7.112;2023-03-01T07:34:31;15.55;;;10.82;;
313;SDS011;143;51.634;7.112;2023-03-01T07:36:56;16.57;;;11.07;;
313;SDS011;143;51.634;7.112;2023-03-01T07:39:22;15.43;;;10.00;;
313;SDS011;143;51.634;7.112;2023-03-01T07:41:48;14.73;;;10.60;;
313;SDS011;143;51.634;7.112;2023-03-01T07:44:14;17.20;;;11.05;;
313;SDS011;143;51.634;7.112;2023-03-01T07:46:41;18.38;;;10.00;;
313;SDS011;143;51.634;7.112;2023-03-01T07:49:07;16.77;;;10.37;;
313;SDS011;143;51.634;7.112;2023-03-01T07:51:32;15.20;;;9.70;;
313;SDS011;143;51.634;7.112;2023-03-01T07:53:58;17.80;;;10.37;;
313;SDS011;143;51.634;7.112;2023-03-01T07:56:24;15.83;;;9.60;;
313;SDS011;143;51.634;7.112;2023-03-01T07:58:49;17.20;;;10.70;;
313;SDS011;143;51.634;7.112;2023-03-01T08:01:16;13.90;;;8.33;;
313;SDS011;143;51.634;7.112;2023-03-01T08:03:43;13.07;;;9.10;;
313;SDS011;143;51.634;7.112;2023-03-01T08:06:09;15.25;;;10.75;;
313;SDS011;143;51.634;7.112;2023-03-01T08:08:36;12.05;;;8.40;;
313;SDS011;143;51.634;7.112;2023-03-01T08:11:03;16.38;;;9.43;;
313;SDS011;143;51.634;7.112;2023-03-01T08:13:31;18.75;;;9.02;;
313;SDS011;143;51.634;7.112;2023-03-01T08:16:05;15.75;;;8.38;;
313;SDS011;143;51.634;7.112;2023-03-01T08:18:33;21.58;;;9.20;;
313;SDS011;143;51.634;7.112;2023-03-01T08:21:17;17.20;;;8.90;;
313;SDS011;143;51.634;7.112;2023-03-01T08:23:43;13.38;;;9.10;;
313;SDS011;143;51.634;7.112;2023-03-01T08:26:10;12.48;;;8.35;;
313;SDS011;143;51.634;7.112;2023-03-01T08:28:42;14.50;;;9.40;;
313;SDS011;143;51.634;7.112;2023-03-01T08:33:59;15.10;;;9.70;;
313;SDS011;143;51.634;7.112;2023-03-01T08:36:27;23.00;;;10.43;;
313;SDS011;143;51.634;7.112;2023-03-01T08:38:55;15.30;;;9.07;;
313;SDS011;143;51.634;7.112;2023-03-01T08:41:21;13.13;;;8.50;;
313;SDS011;143;51.634;7.112;2023-03-01T08:43:53;15.52;;;8.32;;
313;SDS011;143;51.634;7.112;2023-03-01T08:46:48;14.50;;;8.60;;
313;SDS011;143;51.634;7.112;2023-03-01T08:49:30;14.47;;;7.43;;
313;SDS011;143;51.634;7.112;2023-03-01T08:51:57;11.73;;;7.45;;
313;SDS011;143;51.634;7.112;2023-03-01T08:54:23;13.43;;;8.20;;
313;SDS011;143;51.634;7.112;2023-03-01T08:56:49;11.18;;;7.30;;
313;SDS011;143;51.634;7.112;2023-03-01T08:59:17;13.50;;;8.23;;
313;SDS011;143;51.634;7.112;2023-03-01T09:01:43;9.80;;;6.90;;
313;SDS011;143;51.634;7.112;2023-03-01T09:04:09;13.13;;;7.28;;
313;SDS011;143;51.634;7.112;2023-03-01T09:06:36;13.00;;;7.53;;
313;SDS011;143;51.634;7.112;2023-03-01T09:09:03;14.07;;;7.90;;
313;SDS011;143;51.634;7.112;2023-03-01T09:11:29;11.98;;;7.15;;
313;SDS011;143;51.634;7.112;2023-03-01T09:13:55;11.33;;;7.00;;
313;SDS011;143;51.634;7.112;2023-03-01T09:16:22;8.63;;;6.73;;
313;SDS011;143;51.634;7.112;2023-03-01T09:18:49;17.80;;;7.70;;
313;SDS011;143;51.634;7.112;2023-03-01T09:21:16;13.50;;;7.55;;
313;SDS011;143;51.634;7.112;2023-03-01T09:23:43;9.40;;;6.53;;
313;SDS011;143;51.634;7.112;2023-03-01T09:26:16;14.87;;;7.60;;
313;SDS011;143;51.634;7.112;2023-03-01T09:28:44;11.80;;;7.53;;
313;SDS011;143;51.634;7.112;2023-03-01T09:31:10;12.43;;;7.45;;
313;SDS011;143;51.634;7.112;2023-03-01T09:33:40;12.20;;;7.50;;
313;SDS011;143;51.634;7.112;2023-03-01T09:36:07;12.77;;;7.37;;
313;SDS011;143;51.634;7.112;2023-03-01T09:38:36;13.63;;;6.90;;
313;SDS011;143;51.634;7.112;2023-03-01T09:41:02;13.23;;;8.03;;
313;SDS011;143;51.634;7.112;2023-03-01T09:43:43;11.63;;;7.70;;
313;SDS011;143;51.634;7.112;2023-03-01T09:46:12;11.00;;;6.40;;
313;SDS011;143;51.634;7.112;2023-03-01T09:48:44;11.40;;;7.20;;
313;SDS011;143;51.634;7.112;2023-03-01T09:51:19;10.30;;;6.50;;
313;SDS011;143;51.634;7.112;2023-03-01T09:53:51;11.90;;;6.67;;
313;SDS011;143;51.634;7.112;2023-03-01T09:56:28;17.80;;;6.80;;
313;SDS011;143;51.634;7.112;2023-03-01T09:59:20;11.70;;;6.70;;
313;SDS011;143;51.634;7.112;2023-03-01T10:01:57;13.90;;;7.20;;
313;SDS011;143;51.634;7.112;2023-03-01T10:07:20;10.00;;;5.73;;
313;SDS011;143;51.634;7.112;2023-03-01T10:10:06;9.53;;;6.20;;
313;SDS011;143;51.634;7.112;2023-03-01T10:12:35;9.60;;;6.73;;
313;SDS011;143;51.634;7.112;2023-03-01T10:22:47;8.30;;;5.60;;
313;SDS011;143;51.634;7.112;2023-03-01T10:25:20;13.50;;;6.40;;
313;SDS011;143;51.634;7.112;2023-03-01T10:28:01;9.67;;;6.10;;
313;SDS011;143;51.634;7.112;2023-03-01T10:30:36;10.80;;;6.70;;
313;SDS011;143;51.634;7.112;2023-03-01T10:33:29;11.60;;;6.40;;
313;SDS011;143;51.634;7.112;2023-03-01T10:35:54;14.27;;;7.17;;
313;SDS011;143;51.634;7.112;2023-03-01T10:38:20;9.30;;;6.33;;
313;SDS011;143;51.634;7.112;2023-03-01T10:40:59;11.50;;;6.60;;
313;SDS011;143;51.634;7.112;2023-03-01T10:43:49;10.40;;;5.70;;
313;SDS011;143;51.634;7.112;2023-03-01T10:51:50;10.23;;;6.90;;
313;SDS011;143;51.634;7.112;2023-03-01T10:56:51;9.87;;;6.37;;
313;SDS011;143;51.634;7.112;2023-03-01T11:05:01;13.00;;;6.67;;
313;SDS011;143;51.634;7.112;2023-03-01T11:07:52;11.53;;;6.23;;
313;SDS011;143;51.634;7.112;2023-03-01T11:10:21;8.27;;;5.80;;
313;SDS011;143;51.634;7.112;2023-03-01T11:12:51;9.17;;;5.80;;
313;SDS011;143;51.634;7.112;2023-03-01T11:15:20;10.60;;;6.70;;
313;SDS011;143;51.634;7.112;2023-03-01T11:17:48;10.43;;;6.70;;
313;SDS011;143;51.634;7.112;2023-03-01T11:22:53;13.87;;;7.17;;
313;SDS011;143;51.634;7.112;2023-03-01T11:25:39;8.73;;;6.43;;
313;SDS011;143;51.634;7.112;2023-03-01T11:28:11;9.33;;;6.20;;
313;SDS011;143;51.634;7.112;2023-03-01T11:30:44;11.27;;;6.17;;
313;SDS011;143;51.634;7.112;2023-03-01T11:38:54;10.07;;;6.33;;
313;SDS011;143;51.634;7.112;2023-03-01T11:41:23;13.00;;;6.07;;
313;SDS011;143;51.634;7.112;2023-03-01T11:43:57;11.83;;;6.47;;
313;SDS011;143;51.634;7.112;2023-03-01T11:54:52;9.00;;;5.70;;
313;SDS011;143;51.634;7.112;2023-03-01T12:08:42;8.80;;;5.43;;
313;SDS011;143;51.634;7.112;2023-03-01T12:11:32;8.43;;;5.83;;
313;SDS011;143;51.634;7.112;2023-03-01T12:14:37;10.07;;;5.50;;
313;SDS011;143;51.634;7.112;2023-03-01T12:17:29;10.23;;;6.03;;
313;SDS011;143;51.634;7.112;2023-03-01T12:20:17;8.23;;;5.40;;
313;SDS011;143;51.634;7.112;2023-03-01T12:23:00;12.40;;;5.90;;
313;SDS011;143;51.634;7.112;2023-03-01T12:25:45;8.23;;;6.00;;
313;SDS011;143;51.634;7.112;2023-03-01T12:31:15;14.57;;;6.70;;
313;SDS011;143;51.634;7.112;2023-03-01T12:36:42;9.93;;;6.33;;
313;SDS011;143;51.634;7.112;2023-03-01T12:44:41;11.20;;;6.43;;
313;SDS011;143;51.634;7.112;2023-03-01T12:50:18;12.33;;;6.20;;
313;SDS011;143;51.634;7.112;2023-03-01T12:52:52;11.93;;;6.63;;
313;SDS011;143;51.634;7.112;2023-03-01T12:55:34;13.60;;;7.13;;
313;SDS011;143;51.634;7.112;2023-03-01T13:01:04;13.60;;;6.50;;
313;SDS011;143;51.634;7.112;2023-03-01T13:09:09;12.10;;;5.80;;
313;SDS011;143;51.634;7.112;2023-03-01T13:11:42;12.23;;;5.60;;
313;SDS011;143;51.634;7.112;2023-03-01T13:16:46;12.43;;;6.57;;
313;SDS011;143;51.634;7.112;2023-03-01T13:19:21;11.53;;;6.60;;
313;SDS011;143;51.634;7.112;2023-03-01T13:21:49;10.03;;;6.83;;
313;SDS011;143;51.634;7.112;2023-03-01T13:32:23;8.67;;;6.53;;
313;SDS011;143;51.634;7.112;2023-03-01T13:34:54;15.37;;;7.30;;
313;SDS011;143;51.634;7.112;2023-03-01T13:37:25;15.17;;;7.43;;
313;SDS011;143;51.634;7.112;2023-03-01T13:39:54;16.13;;;7.63;;
313;SDS011;143;51.634;7.112;2023-03-01T13:42:42;13.50;;;7.60;;
313;SDS011;143;51.634;7.112;2023-03-01T13:47:49;14.07;;;7.63;;
313;SDS011;143;51.634;7.112;2023-03-01T13:50:20;14.03;;;7.33;;
313;SDS011;143;51.634;7.112;2023-03-01T13:52:59;18.67;;;9.33;;
313;SDS011;143;51.634;7.112;2023-03-01T13:55:32;13.50;;;7.30;;
313;SDS011;143;51.634;7.112;2023-03-01T13:58:04;13.20;;;7.20;;
313;SDS011;143;51.634;7.112;2023-03-01T14:00:39;18.40;;;8.93;;
313;SDS011;143;51.634;7.112;2023-03-01T14:03:18;13.83;;;8.50;;
313;SDS011;143;51.634;7.112;2023-03-01T14:06:04;13.40;;;7.10;;
313;SDS011;143;51.634;7.112;2023-03-01T14:08:36;12.30;;;7.50;;
313;SDS011;143;51.634;7.112;2023-03-01T14:16:28;10.93;;;6.53;;
313;SDS011;143;51.634;7.112;2023-03-01T14:21:32;11.60;;;7.10;;
313;SDS011;143;51.634;7.112;2023-03-01T14:23:58;14.63;;;7.47;;
313;SDS011;143;51.634;7.112;2023-03-01T14:26:24;12.23;;;7.67;;
313;SDS011;143;51.634;7.112;2023-03-01T14:28:50;13.07;;;6.73;;
313;SDS011;143;51.634;7.112;2023-03-01T14:34:02;14.20;;;6.47;;
313;SDS011;143;51.634;7.112;2023-03-01T14:36:30;13.43;;;6.70;;
313;SDS011;143;51.634;7.112;2023-03-01T14:38:56;13.57;;;7.00;;
313;SDS011;143;51.634;7.112;2023-03-01T14:41:30;10.70;;;6.47;;
313;SDS011;143;51.634;7.112;2023-03-01T14:44:05;15.60;;;6.60;;
313;SDS011;143;51.634;7.112;2023-03-01T14:46:41;13.00;;;6.10;;
313;SDS011;143;51.634;7.112;2023-03-01T14:49:10;12.07;;;6.60;;
313;SDS011;143;51.634;7.112;2023-03-01T14:51:42;12.30;;;8.17;;
313;SDS011;143;51.634;7.112;2023-03-01T14:54:23;11.50;;;6.80;;
313;SDS011;143;51.634;7.112;2023-03-01T14:56:57;11.23;;;6.67;;
313;SDS011;143;51.634;7.112;2023-03-01T14:59:25;11.97;;;7.23;;
313;SDS011;143;51.634;7.112;2023-03-01T15:01:51;11.80;;;6.70;;
313;SDS011;143;51.634;7.112;2023-03-01T15:04:20;13.03;;;7.47;;
313;SDS011;143;51.634;7.112;2023-03-01T15:06:47;12.07;;;7.23;;
313;SDS011;143;51.634;7.112;2023-03-01T15:09:16;13.83;;;6.60;;
313;SDS011;143;51.634;7.112;2023-03-01T15:11:43;12.30;;;7.17;;
313;SDS011;143;51.634;7.112;2023-03-01T15:17:26;15.00;;;7.50;;
313;SDS011;143;51.634;7.112;2023-03-01T15:19:54;13.17;;;7.77;;
313;SDS011;143;51.634;7.112;2023-03-01T15:22:20;10.50;;;6.53;;
313;SDS011;143;51.634;7.112;2023-03-01T15:24:48;15.00;;;7.20;;
313;SDS011;143;51.634;7.112;2023-03-01T15:27:16;12.27;;;7.40;;
313;SDS011;143;51.634;7.112;2023-03-01T15:29:47;12.10;;;7.20;;
313;SDS011;143;51.634;7.112;2023-03-01T15:32:35;10.20;;;6.00;;
313;SDS011;143;51.634;7.112;2023-03-01T15:38:04;14.37;;;7.13;;
313;SDS011;143;51.634;7.112;2023-03-01T15:40:51;13.57;;;7.17;;
313;SDS011;143;51.634;7.112;2023-03-01T15:48:57;14.47;;;7.50;;
313;SDS011;143;51.634;7.112;2023-03-01T15:51:30;15.10;;;7.03;;
313;SDS011;143;51.634;7.112;2023-03-01T15:53:56;17.03;;;7.57;;
313;SDS011;143;51.634;7.112;2023-03-01T15:56:24;9.30;;;6.00;;
313;SDS011;143;51.634;7.112;2023-03-01T15:58:50;11.00;;;6.30;;
313;SDS011;143;51.634;7.112;2023-03-01T16:01:16;10.03;;;6.10;;
313;SDS011;143;51.634;7.112;2023-03-01T16:03:42;12.47;;;6.27;;
313;SDS011;143;51.634;7.112;2023-03-01T16:06:09;12.90;;;7.00;;
313;SDS011;143;51.634;7.112;2023-03-01T16:08:36;14.30;;;6.23;;
313;SDS011;143;51.634;7.112;2023-03-01T16:11:04;12.17;;;6.50;;
313;SDS011;143;51.634;7.112;2023-03-01T16:13:31;10.00;;;6.53;;
313;SDS011;143;51.634;7.112;2023-03-01T16:15:57;12.53;;;5.90;;
313;SDS011;143;51.634;7.112;2023-03-01T16:18:23;14.83;;;6.73;;
313;SDS011;143;51.634;7.112;2023-03-01T16:20:49;11.00;;;6.57;;
313;SDS011;143;51.634;7.112;2023-03-01T16:23:15;9.10;;;5.67;;
313;SDS011;143;51.634;7.112;2023-03-01T16:25:41;11.23;;;6.17;;
313;SDS011;143;51.634;7.112;2023-03-01T16:28:06;12.13;;;6.40;;
313;SDS011;143;51.634;7.112;2023-03-01T16:30:36;10.30;;;6.30;;
313;SDS011;143;51.634;7.112;2023-03-01T16:33:03;14.50;;;7.40;;
313;SDS011;143;51.634;7.112;2023-03-01T16:35:32;11.17;;;5.93;;
313;SDS011;143;51.634;7.112;2023-03-01T16:37:59;10.13;;;6.33;;
313;SDS011;143;51.634;7.112;2023-03-01T16:40:28;10.33;;;5.83;;
313;SDS011;143;51.634;7.112;2023-03-01T16:42:55;11.10;;;5.70;;
313;SDS011;143;51.634;7.112;2023-03-01T16:45:25;10.57;;;6.13;;
313;SDS011;143;51.634;7.112;2023-03-01T16:47:52;9.53;;;6.03;;
313;SDS011;143;51.634;7.112;2023-03-01T16:50:17;13.70;;;7.57;;
313;SDS011;143;51.634;7.112;2023-03-01T16:52:44;12.03;;;6.47;;
313;SDS011;143;51.634;7.112;2023-03-01T16:55:09;10.60;;;5.67;;
313;SDS011;143;51.634;7.112;2023-03-01T16:57:36;10.90;;;6.73;;
313;SDS011;143;51.634;7.112;2023-03-01T17:00:03;10.17;;;6.30;;
313;SDS011;143;51.634;7.112;2023-03-01T17:02:32;11.13;;;6.33;;
313;SDS011;143;51.634;7.112;2023-03-01T17:04:58;9.57;;;5.97;;
313;SDS011;143;51.634;7.112;2023-03-01T17:07:24;10.33;;;6.40;;
313;SDS011;143;51.634;7.112;2023-03-01T17:09:50;11.70;;;6.10;;
313;SDS011;143;51.634;7.112;2023-03-01T17:12:15;12.60;;;6.50;;
313;SDS011;143;51.634;7.112;2023-03-01T17:14:41;17.83;;;6.50;;
313;SDS011;143;51.634;7.112;2023-03-01T17:17:08;11.03;;;6.20;;
313;SDS011;143;51.634;7.112;2023-03-01T17:19:34;15.37;;;6.30;;
313;SDS011;143;51.634;7.112;2023-03-01T17:22:04;13.40;;;7.77;;
313;SDS011;143;51.634;7.112;2023-03-01T17:24:34;14.13;;;7.10;;
313;SDS011;143;51.634;7.112;2023-03-01T17:27:01;11.17;;;6.63;;
313;SDS011;143;51.634;7.112;2023-03-01T17:29:27;13.90;;;6.93;;
313;SDS011;143;51.634;7.112;2023-03-01T17:31:53;13.63;;;8.37;;
313;SDS011;143;51.634;7.112;2023-03-01T17:34:20;17.17;;;7.80;;
313;SDS011;143;51.634;7.112;2023-03-01T17:36:47;17.33;;;8.47;;
313;SDS011;143;51.634;7.112;2023-03-01T17:39:14;17.23;;;9.13;;
313;SDS011;143;51.634;7.112;2023-03-01T17:41:41;18.57;;;9.40;;
313;SDS011;143;51.634;7.112;2023-03-01T17:44:07;11.07;;;6.17;;
313;SDS011;143;51.634;7.112;2023-03-01T17:46:33;16.20;;;8.53;;